Time;durP1;ratioP1;P1;durP2;ratioP2;P2;SDS_P1;SDS_P2;PMS_P1;PMS_P2;Temp;Humidity;BMP_temperature;BMP_pressure;BME280_temperature;BME280_humidity;BME280_pressure;Samples;Min_cycle;Max_cycle;Signal;HPM_P1;HPM_P2
2021/12/30 00:01:17;;;;;;;0.90;0.80;;;5.70;96.30;;;;;;4964745;28;20225;-77
2021/12/30 00:03:44;;;;;;;1.10;1.00;;;5.70;96.30;;;;;;4976181;28;20413;-78
2021/12/30 00:06:10;;;;;;;1.30;0.80;;;5.70;96.30;;;;;;4975708;28;20413;-77
2021/12/30 00:08:36;;;;;;;1.20;1.10;;;5.70;96.30;;;;;;4976177;28;20472;-77
2021/12/30 00:11:03;;;;;;;1.60;0.90;;;5.80;96.30;;;;;;4958780;28;20417;-75
2021/12/30 00:13:28;;;;;;;1.30;0.97;;;5.90;96.30;;;;;;4976033;28;20666;-75
2021/12/30 00:15:54;;;;;;;1.93;0.80;;;5.80;96.30;;;;;;4975634;28;20413;-75
2021/12/30 00:18:20;;;;;;;1.07;0.73;;;5.80;96.30;;;;;;4976115;28;20206;-76
2021/12/30 00:20:46;;;;;;;1.10;0.80;;;5.90;96.30;;;;;;4975946;28;20178;-76
2021/12/30 00:23:11;;;;;;;1.00;0.60;;;5.90;96.30;;;;;;4976127;28;20166;-76
2021/12/30 00:25:40;;;;;;;0.93;0.73;;;5.90;96.30;;;;;;4975889;28;20413;-78
2021/12/30 00:28:11;;;;;;;1.10;0.70;;;6.00;96.30;;;;;;4975475;28;20221;-78
2021/12/30 00:30:38;;;;;;;1.00;0.70;;;6.00;96.30;;;;;;4975924;28;20863;-78
2021/12/30 00:33:03;;;;;;;1.00;0.87;;;6.00;96.30;;;;;;4975944;28;20989;-78
2021/12/30 00:35:29;;;;;;;1.10;0.70;;;6.00;96.30;;;;;;4965092;28;20423;-78
2021/12/30 00:37:55;;;;;;;0.90;0.60;;;6.00;96.30;;;;;;4955905;29;20655;-79
2021/12/30 00:40:21;;;;;;;0.90;0.60;;;6.00;96.30;;;;;;4956411;29;20190;-78
2021/12/30 00:42:46;;;;;;;0.80;0.50;;;6.00;96.30;;;;;;4939091;29;20178;-79
2021/12/30 00:45:12;;;;;;;0.80;0.50;;;6.00;96.30;;;;;;4956568;29;20258;-79
2021/12/30 00:47:37;;;;;;;0.90;0.60;;;6.10;96.30;;;;;;4938536;29;20557;-79
2021/12/30 00:50:03;;;;;;;0.87;0.57;;;6.10;96.30;;;;;;4956452;29;20682;-79
2021/12/30 00:52:29;;;;;;;0.87;0.53;;;6.10;96.30;;;;;;4956262;29;20545;-78
2021/12/30 00:54:54;;;;;;;0.80;0.60;;;6.10;96.30;;;;;;4956438;29;20421;-77
2021/12/30 00:57:20;;;;;;;1.10;0.50;;;6.10;96.30;;;;;;4955847;29;20282;-79
2021/12/30 00:59:46;;;;;;;0.80;0.50;;;6.10;96.30;;;;;;4956255;29;20738;-79
2021/12/30 05:00:24;;;;;;;4.83;1.90;;;7.90;96.30;;;;;;5917027;23;20378;-78
2021/12/30 05:05:27;;;;;;;3.43;1.33;;;8.00;96.30;;;;;;4963460;28;20220;-77
2021/12/30 05:07:53;;;;;;;3.63;1.80;;;7.90;96.30;;;;;;4957209;28;20920;-76
2021/12/30 05:10:18;;;;;;;3.17;1.77;;;7.90;96.30;;;;;;4975043;28;20178;-75
2021/12/30 05:12:45;;;;;;;2.43;1.63;;;7.90;96.30;;;;;;4975123;28;20185;-75
2021/12/30 05:15:11;;;;;;;2.90;1.70;;;8.00;96.30;;;;;;4976165;28;20205;-79
2021/12/30 05:17:36;;;;;;;2.00;1.80;;;7.90;96.30;;;;;;4958146;28;20418;-79
2021/12/30 05:20:03;;;;;;;2.40;1.57;;;8.00;96.30;;;;;;4958563;28;20265;-79
2021/12/30 05:27:37;;;;;;;3.20;1.90;;;8.00;96.30;;;;;;4915680;29;20476;-79
2021/12/30 05:30:06;;;;;;;2.90;1.93;;;7.90;96.30;;;;;;4917927;29;20419;-79
2021/12/30 05:32:32;;;;;;;4.20;2.57;;;8.00;96.30;;;;;;4898841;29;20442;-77
2021/12/30 05:34:57;;;;;;;2.93;2.23;;;8.00;96.30;;;;;;4898847;29;20417;-79
2021/12/30 05:37:23;;;;;;;3.33;1.77;;;8.00;96.30;;;;;;4898370;29;20173;-79
2021/12/30 05:39:48;;;;;;;2.17;1.60;;;8.00;96.30;;;;;;4881813;29;20584;-78
2021/12/30 05:42:14;;;;;;;2.30;2.00;;;7.90;96.30;;;;;;4897522;29;20208;-79
2021/12/30 05:44:40;;;;;;;3.47;1.90;;;7.90;96.30;;;;;;4898987;29;20660;-79
2021/12/30 05:47:06;;;;;;;3.20;2.40;;;7.90;96.30;;;;;;4897680;29;20725;-78
2021/12/30 05:49:32;;;;;;;8.13;2.37;;;7.90;96.30;;;;;;4898218;29;20425;-79
2021/12/30 05:51:58;;;;;;;1.83;1.70;;;7.80;96.30;;;;;;4898287;29;20201;-79
2021/12/30 05:54:23;;;;;;;5.80;2.13;;;7.80;96.30;;;;;;4898546;29;20185;-80
2021/12/30 05:56:49;;;;;;;7.10;2.33;;;7.80;96.30;;;;;;4880922;29;20184;-79
2021/12/30 05:59:14;;;;;;;2.73;2.00;;;7.90;96.30;;;;;;4898538;29;20237;-79
2021/12/30 06:01:40;;;;;;;4.77;2.60;;;7.90;96.30;;;;;;4881338;29;20277;-79
2021/12/30 06:04:05;;;;;;;2.63;2.20;;;7.90;96.30;;;;;;4898221;29;20257;-79
2021/12/30 06:06:31;;;;;;;2.17;1.50;;;7.90;96.30;;;;;;4881271;29;20200;-77
2021/12/30 06:08:56;;;;;;;7.67;3.23;;;8.00;96.30;;;;;;4894711;29;20181;-79
2021/12/30 06:11:22;;;;;;;5.23;2.67;;;8.00;96.30;;;;;;4878019;29;20224;-79
2021/12/30 06:13:47;;;;;;;6.50;2.77;;;8.00;96.30;;;;;;4862855;29;20276;-78
2021/12/30 06:16:13;;;;;;;7.30;2.57;;;8.00;96.30;;;;;;4878510;29;20186;-79
2021/12/30 06:18:38;;;;;;;5.70;2.80;;;8.00;96.30;;;;;;4878963;29;20357;-79
2021/12/30 06:21:04;;;;;;;3.03;1.90;;;8.00;96.30;;;;;;4879104;29;20233;-79
2021/12/30 06:23:29;;;;;;;5.60;2.10;;;8.00;96.30;;;;;;4879296;29;20191;-78
2021/12/30 06:25:55;;;;;;;8.37;2.23;;;8.00;96.30;;;;;;4878419;29;20193;-80
2021/12/30 06:28:20;;;;;;;4.63;1.93;;;8.10;96.30;;;;;;4877900;29;20178;-78
2021/12/30 06:30:46;;;;;;;5.47;2.73;;;8.00;96.30;;;;;;4878248;29;20675;-79
2021/12/30 06:33:11;;;;;;;9.33;2.60;;;8.00;96.30;;;;;;4862416;29;20185;-79
2021/12/30 06:35:37;;;;;;;9.07;2.70;;;8.00;96.30;;;;;;4890037;29;20183;-79
2021/12/30 06:38:03;;;;;;;8.23;2.30;;;8.00;96.30;;;;;;4897185;29;20267;-79
2021/12/30 06:40:29;;;;;;;5.40;2.20;;;8.00;96.30;;;;;;4897388;29;20205;-78
2021/12/30 06:42:55;;;;;;;4.43;2.10;;;8.00;96.30;;;;;;4880847;29;20779;-79
2021/12/30 06:45:21;;;;;;;7.47;2.77;;;8.10;96.30;;;;;;4880578;29;20420;-79
2021/12/30 06:47:47;;;;;;;8.30;2.67;;;8.00;96.30;;;;;;4896925;29;20177;-78
2021/12/30 06:50:15;;;;;;;4.03;2.47;;;8.10;96.30;;;;;;4897496;29;20649;-79
2021/12/30 06:52:43;;;;;;;7.30;2.97;;;8.10;96.30;;;;;;4897940;29;20416;-78
2021/12/30 06:55:09;;;;;;;6.23;2.63;;;8.10;96.30;;;;;;4897742;29;20500;-79
2021/12/30 06:57:35;;;;;;;6.20;2.40;;;8.10;96.30;;;;;;4879964;29;20465;-79
2021/12/30 07:00:04;;;;;;;4.23;1.90;;;8.20;96.30;;;;;;4880634;29;20947;-78
2021/12/30 07:02:29;;;;;;;7.30;3.10;;;8.10;96.30;;;;;;4896981;29;20285;-79
2021/12/30 07:04:55;;;;;;;6.67;3.27;;;8.20;96.30;;;;;;4897162;29;20470;-78
2021/12/30 07:07:21;;;;;;;5.23;2.33;;;8.20;96.30;;;;;;4896618;29;20177;-79
2021/12/30 07:09:47;;;;;;;6.17;2.40;;;8.10;96.30;;;;;;4887088;29;20186;-79
2021/12/30 07:12:13;;;;;;;3.53;2.10;;;8.10;96.30;;;;;;4861623;29;20208;-79
2021/12/30 07:14:38;;;;;;;5.80;2.87;;;8.10;96.30;;;;;;4878270;29;20554;-79
2021/12/30 07:17:04;;;;;;;3.97;2.70;;;8.10;96.30;;;;;;4877729;29;20434;-79
2021/12/30 07:19:30;;;;;;;8.83;2.93;;;8.10;96.30;;;;;;4878209;29;20681;-79
2021/12/30 07:21:55;;;;;;;5.93;2.60;;;8.10;96.30;;;;;;4878284;29;20329;-79
2021/12/30 07:24:21;;;;;;;7.53;2.60;;;8.00;96.30;;;;;;4878265;29;20268;-79
2021/12/30 07:26:47;;;;;;;5.90;3.17;;;8.00;96.30;;;;;;4860932;29;20220;-79
2021/12/30 07:29:13;;;;;;;8.30;2.90;;;8.00;96.30;;;;;;4861528;29;20186;-79
2021/12/30 07:31:39;;;;;;;7.80;2.67;;;8.00;96.30;;;;;;4861440;29;20441;-79
2021/12/30 07:34:04;;;;;;;7.87;2.90;;;8.00;96.30;;;;;;4878149;29;20188;-78
2021/12/30 07:36:29;;;;;;;7.53;2.80;;;8.00;96.30;;;;;;4878638;29;20181;-78
2021/12/30 07:38:55;;;;;;;11.27;3.40;;;7.90;96.30;;;;;;4879901;29;20326;-79
2021/12/30 07:41:20;;;;;;;5.10;2.90;;;8.10;96.30;;;;;;4896718;29;20225;-77
2021/12/30 07:43:46;;;;;;;10.17;3.63;;;8.10;96.30;;;;;;4896833;29;20279;-76
2021/12/30 07:46:12;;;;;;;6.10;2.90;;;8.20;96.30;;;;;;4896135;29;20199;-78
2021/12/30 07:48:38;;;;;;;7.63;3.60;;;8.20;96.30;;;;;;4896656;29;20185;-78
2021/12/30 07:51:04;;;;;;;9.10;3.13;;;8.30;96.30;;;;;;4896586;29;20201;-78
2021/12/30 07:53:30;;;;;;;7.40;3.10;;;8.40;96.30;;;;;;4897030;29;20846;-77
2021/12/30 07:55:55;;;;;;;5.50;2.70;;;8.50;96.30;;;;;;4894866;29;20428;-77
2021/12/30 07:58:20;;;;;;;7.03;3.80;;;8.50;96.30;;;;;;4893223;29;20547;-77
2021/12/30 08:00:46;;;;;;;9.93;3.20;;;8.40;96.30;;;;;;4877356;29;20190;-78
2021/12/30 08:03:11;;;;;;;4.67;2.80;;;8.40;96.30;;;;;;4878240;29;20175;-77
2021/12/30 08:05:37;;;;;;;8.43;3.50;;;8.40;96.30;;;;;;4878216;29;20257;-77
2021/12/30 08:08:03;;;;;;;15.87;10.97;;;8.30;96.30;;;;;;4876855;29;20181;-77
2021/12/30 08:10:29;;;;;;;6.37;3.43;;;8.40;96.30;;;;;;4893093;29;21063;-77
2021/12/30 08:12:55;;;;;;;4.33;2.43;;;8.40;96.30;;;;;;4896895;29;20898;-75
2021/12/30 08:15:21;;;;;;;6.43;3.07;;;8.30;96.30;;;;;;4882816;29;20429;-77
2021/12/30 08:17:49;;;;;;;6.80;2.80;;;8.40;96.30;;;;;;4899831;29;20173;-77
2021/12/30 08:20:16;;;;;;;5.73;2.60;;;8.50;96.30;;;;;;4899720;29;20507;-78
2021/12/30 08:22:42;;;;;;;5.87;2.87;;;8.40;96.30;;;;;;4899751;29;20417;-78
2021/12/30 08:25:09;;;;;;;7.20;2.67;;;8.40;96.30;;;;;;4899684;29;20409;-78
2021/12/30 08:27:35;;;;;;;4.20;2.27;;;8.40;96.30;;;;;;4883003;29;20855;-78
2021/12/30 08:30:01;;;;;;;3.83;2.00;;;8.40;96.30;;;;;;4899771;29;20430;-80
2021/12/30 08:32:26;;;;;;;7.80;2.80;;;8.40;96.30;;;;;;4896510;29;20816;-79
2021/12/30 08:34:52;;;;;;;8.53;2.77;;;8.50;96.30;;;;;;4876115;29;20653;-78
2021/12/30 08:37:17;;;;;;;7.17;3.10;;;8.40;96.30;;;;;;4895351;29;20611;-77
2021/12/30 08:39:44;;;;;;;5.63;2.30;;;8.50;96.30;;;;;;4876278;29;20420;-80
2021/12/30 08:42:22;;;;;;;8.70;2.67;;;8.50;96.30;;;;;;4882153;29;20197;-77
2021/12/30 08:44:49;;;;;;;5.27;2.40;;;8.50;96.30;;;;;;4896200;29;20430;-79
2021/12/30 08:47:15;;;;;;;10.37;2.60;;;8.50;96.30;;;;;;4879271;29;20475;-78
2021/12/30 08:49:45;;;;;;;4.30;1.97;;;8.50;96.30;;;;;;4863733;29;20851;-79
2021/12/30 08:52:12;;;;;;;7.20;2.00;;;8.50;96.30;;;;;;4880402;29;20442;-79
2021/12/30 08:54:37;;;;;;;4.23;2.00;;;8.60;96.30;;;;;;4880387;29;20421;-75
2021/12/30 08:57:04;;;;;;;4.80;1.63;;;8.50;96.30;;;;;;4895019;29;20917;-78
2021/12/30 08:59:30;;;;;;;8.13;2.70;;;8.50;96.30;;;;;;4898304;29;20208;-78
2021/12/30 09:01:55;;;;;;;6.80;2.13;;;8.50;96.30;;;;;;4886265;29;20453;-78
2021/12/30 09:04:21;;;;;;;7.00;1.87;;;8.50;96.30;;;;;;4898492;29;20165;-78
2021/12/30 09:06:46;;;;;;;4.73;2.67;;;8.50;96.30;;;;;;4897271;29;20211;-78
2021/12/30 09:09:12;;;;;;;4.07;1.97;;;8.50;96.30;;;;;;4907617;29;20177;-78
2021/12/30 09:11:37;;;;;;;6.20;2.30;;;8.50;96.30;;;;;;4880141;29;20212;-77
2021/12/30 09:14:03;;;;;;;6.83;2.00;;;8.50;96.30;;;;;;4880158;29;20241;-76
2021/12/30 09:16:29;;;;;;;11.30;2.53;;;8.60;96.30;;;;;;4879642;29;20216;-76
2021/12/30 09:18:54;;;;;;;7.60;2.60;;;8.70;96.30;;;;;;4879953;29;20197;-77
2021/12/30 09:21:20;;;;;;;5.87;2.10;;;8.70;96.30;;;;;;4880015;29;20197;-77
2021/12/30 09:23:45;;;;;;;9.03;3.03;;;8.80;96.30;;;;;;4880130;29;20182;-76
2021/12/30 09:26:11;;;;;;;7.67;2.20;;;8.90;96.30;;;;;;4881757;29;20197;-77
2021/12/30 09:28:36;;;;;;;4.60;1.80;;;8.90;96.30;;;;;;4885726;29;20177;-76
2021/12/30 09:31:02;;;;;;;8.00;1.90;;;9.00;96.30;;;;;;4897535;29;20236;-77
2021/12/30 09:33:28;;;;;;;7.70;2.67;;;9.00;96.30;;;;;;4898482;29;20191;-75
2021/12/30 09:35:53;;;;;;;7.83;2.47;;;9.00;96.30;;;;;;4897876;29;20200;-76
2021/12/30 09:38:19;;;;;;;7.87;2.07;;;9.10;96.30;;;;;;4898402;29;20177;-76
2021/12/30 09:40:45;;;;;;;5.60;2.90;;;9.20;96.30;;;;;;4898362;29;20193;-75
2021/12/30 09:43:11;;;;;;;8.00;3.33;;;9.40;96.30;;;;;;4898479;29;20470;-76
2021/12/30 09:45:40;;;;;;;11.87;2.27;;;9.50;96.30;;;;;;4898376;29;20176;-77
2021/12/30 09:48:08;;;;;;;8.53;3.30;;;9.50;96.30;;;;;;4895344;29;20409;-77
2021/12/30 09:50:39;;;;;;;7.77;1.70;;;9.60;96.30;;;;;;4878919;29;20520;-76
2021/12/30 09:53:05;;;;;;;5.50;1.83;;;9.70;96.30;;;;;;4879954;29;20407;-76
2021/12/30 09:55:31;;;;;;;10.70;2.27;;;9.80;96.30;;;;;;4891892;29;20470;-77
2021/12/30 09:57:57;;;;;;;2.80;1.57;;;9.90;96.30;;;;;;4896136;29;20250;-78
2021/12/30 10:00:23;;;;;;;3.97;1.70;;;10.10;96.30;;;;;;4912389;29;20468;-79
2021/12/30 10:02:49;;;;;;;5.03;1.53;;;10.20;96.30;;;;;;4897947;29;20925;-77
2021/12/30 10:05:18;;;;;;;4.30;1.40;;;10.20;96.30;;;;;;4897986;29;20170;-78
2021/12/30 10:07:44;;;;;;;4.43;1.63;;;10.20;96.30;;;;;;4897257;29;20439;-77
2021/12/30 10:10:30;;;;;;;5.80;2.50;;;10.10;96.30;;;;;;4897265;29;20421;-77
2021/12/30 10:12:57;;;;;;;4.10;1.57;;;10.00;96.30;;;;;;4896496;29;20425;-78
2021/12/30 10:15:25;;;;;;;4.07;1.67;;;10.00;96.30;;;;;;4880690;29;20437;-76
2021/12/30 10:17:59;;;;;;;7.30;3.20;;;9.90;96.30;;;;;;4896919;29;20417;-76
2021/12/30 10:20:30;;;;;;;2.80;1.20;;;9.90;96.30;;;;;;4881047;29;20661;-78
2021/12/30 10:23:12;;;;;;;4.37;1.50;;;9.90;96.30;;;;;;4909806;29;20424;-77
2021/12/30 10:25:41;;;;;;;4.43;1.67;;;9.90;96.30;;;;;;4897319;29;20438;-75
2021/12/30 10:28:33;;;;;;;4.60;2.53;;;9.90;96.30;;;;;;4897600;29;20425;-76
2021/12/30 10:31:14;;;;;;;3.47;1.77;;;10.00;96.30;;;;;;4897416;29;20941;-80
2021/12/30 10:33:59;;;;;;;5.30;1.50;;;10.00;96.30;;;;;;4898407;29;20397;-78
2021/12/30 10:36:27;;;;;;;3.53;1.60;;;10.00;96.30;;;;;;4879270;29;20838;-78
2021/12/30 10:39:13;;;;;;;1.70;0.90;;;10.00;96.30;;;;;;4878714;29;20470;-78
2021/12/30 10:41:38;;;;;;;3.97;1.80;;;9.90;96.30;;;;;;4878696;29;20786;-78
2021/12/30 10:44:05;;;;;;;2.70;1.00;;;9.90;96.30;;;;;;4873087;29;20432;-78
2021/12/30 10:46:31;;;;;;;2.57;1.13;;;9.90;96.30;;;;;;4898408;29;20678;-78
2021/12/30 10:49:05;;;;;;;4.93;2.40;;;9.90;96.30;;;;;;4913483;29;20508;-78
2021/12/30 10:51:45;;;;;;;8.90;2.20;;;9.90;96.30;;;;;;4897265;29;20197;-79
2021/12/30 10:54:29;;;;;;;1.83;0.97;;;10.00;96.30;;;;;;4897494;29;20835;-78
2021/12/30 10:56:58;;;;;;;2.90;1.10;;;10.10;96.30;;;;;;4895846;29;20520;-79
2021/12/30 10:59:32;;;;;;;2.07;1.10;;;10.00;96.30;;;;;;4895659;29;20976;-78
2021/12/30 11:02:12;;;;;;;2.13;1.60;;;10.00;96.30;;;;;;4897448;29;20445;-78
2021/12/30 11:04:44;;;;;;;1.80;1.00;;;10.00;96.30;;;;;;4897429;29;20421;-78
2021/12/30 11:07:13;;;;;;;1.87;0.80;;;10.00;96.30;;;;;;4896995;29;20480;-78
2021/12/30 11:09:48;;;;;;;1.53;0.70;;;10.10;96.30;;;;;;4896969;29;20453;-78
2021/12/30 11:12:14;;;;;;;1.73;1.00;;;10.10;96.30;;;;;;4897262;29;20448;-78
2021/12/30 11:14:40;;;;;;;3.00;1.20;;;10.10;96.30;;;;;;4897254;29;20468;-78
2021/12/30 11:17:15;;;;;;;2.97;0.80;;;10.10;96.30;;;;;;4898029;29;20780;-79
2021/12/30 11:19:52;;;;;;;3.53;1.10;;;10.10;96.30;;;;;;4897306;29;20204;-78
2021/12/30 13:17:44;;;;;;;1.07;0.60;;;11.20;96.30;;;;;;5383187;23;20516;-79
2021/12/30 13:20:13;;;;;;;0.90;0.60;;;11.20;96.30;;;;;;4960492;29;20450;-78
2021/12/30 13:22:38;;;;;;;0.90;0.70;;;11.20;96.30;;;;;;4957298;29;20418;-79
2021/12/30 13:25:05;;;;;;;0.90;0.60;;;11.20;96.30;;;;;;4957372;29;20419;-79
2021/12/30 13:27:39;;;;;;;0.90;0.60;;;11.30;96.30;;;;;;4957911;29;20178;-79
2021/12/30 13:30:11;;;;;;;0.80;0.50;;;11.30;96.30;;;;;;4924392;29;20486;-79
2021/12/30 13:32:42;;;;;;;1.00;0.60;;;11.30;96.30;;;;;;4920377;29;20835;-79
2021/12/30 13:35:26;;;;;;;0.80;0.50;;;11.30;96.30;;;;;;4928531;29;20462;-79
2021/12/30 13:38:09;;;;;;;0.80;0.60;;;11.30;96.30;;;;;;4940869;29;20434;-78
2021/12/30 13:40:45;;;;;;;1.77;0.60;;;11.30;96.30;;;;;;4957581;29;20466;-79
2021/12/30 13:43:17;;;;;;;1.33;0.53;;;11.30;96.30;;;;;;4940421;29;20934;-79
2021/12/30 13:45:44;;;;;;;5.50;0.67;;;11.30;96.30;;;;;;4957701;29;21219;-79
2021/12/30 13:48:26;;;;;;;1.00;0.60;;;11.40;96.30;;;;;;4957797;29;20786;-78
2021/12/30 13:50:58;;;;;;;1.43;0.50;;;11.40;96.30;;;;;;4957755;29;20489;-78
2021/12/30 13:53:27;;;;;;;0.90;0.60;;;11.40;96.30;;;;;;4957336;29;20431;-79
2021/12/30 13:56:16;;;;;;;0.90;0.50;;;11.50;96.30;;;;;;4957457;29;20833;-78
2021/12/30 13:58:43;;;;;;;0.80;0.50;;;11.50;96.30;;;;;;4939927;29;20526;-79
2021/12/30 14:01:16;;;;;;;1.00;0.70;;;11.60;96.30;;;;;;4957141;29;20434;-79
2021/12/30 14:04:02;;;;;;;0.80;0.50;;;11.50;96.30;;;;;;4940591;29;20430;-79
2021/12/30 14:06:28;;;;;;;2.23;0.60;;;11.50;96.30;;;;;;4957291;29;20509;-79
2021/12/30 14:09:15;;;;;;;1.20;0.60;;;11.50;96.30;;;;;;4954812;29;20518;-78
2021/12/30 14:11:45;;;;;;;1.10;0.50;;;11.50;96.30;;;;;;4938285;29;20443;-78
2021/12/30 14:14:13;;;;;;;0.80;0.60;;;11.50;96.30;;;;;;4920706;29;20419;-78
2021/12/30 14:16:43;;;;;;;0.80;0.50;;;11.50;96.30;;;;;;4937386;29;20450;-78
2021/12/30 14:19:08;;;;;;;1.67;0.50;;;11.50;96.30;;;;;;4936783;29;20461;-78
2021/12/30 14:21:36;;;;;;;0.80;0.60;;;11.50;96.30;;;;;;4937412;29;20443;-78
2021/12/30 14:24:28;;;;;;;1.03;0.70;;;11.50;96.30;;;;;;4919677;29;20180;-78
2021/12/30 14:26:56;;;;;;;1.97;0.60;;;11.50;96.30;;;;;;4932067;29;20423;-78
2021/12/30 14:29:28;;;;;;;0.80;0.50;;;11.50;96.30;;;;;;4920074;29;20434;-78
2021/12/30 14:31:53;;;;;;;0.90;0.50;;;11.50;96.30;;;;;;4936452;29;20526;-78
2021/12/30 14:34:39;;;;;;;0.80;0.50;;;11.50;96.30;;;;;;4920176;29;20504;-78
2021/12/30 14:37:16;;;;;;;0.90;0.60;;;11.60;96.30;;;;;;4938226;29;20182;-78
2021/12/30 14:39:45;;;;;;;0.90;0.60;;;11.60;96.30;;;;;;4955240;29;20486;-78
2021/12/30 14:42:24;;;;;;;0.93;0.60;;;11.60;96.30;;;;;;4955241;29;20438;-78
2021/12/30 14:45:15;;;;;;;0.90;0.63;;;11.60;96.30;;;;;;4955342;29;20438;-78
2021/12/30 14:47:48;;;;;;;0.83;0.60;;;11.60;96.30;;;;;;4941797;29;20461;-78
2021/12/30 14:50:19;;;;;;;1.07;0.70;;;11.60;96.30;;;;;;4955528;29;20446;-78
2021/12/30 14:52:48;;;;;;;1.00;0.60;;;11.60;96.30;;;;;;4955227;29;20418;-79
2021/12/30 14:55:27;;;;;;;1.00;0.60;;;11.70;96.30;;;;;;4954996;29;20435;-78
2021/12/30 14:58:02;;;;;;;0.80;0.53;;;11.60;96.30;;;;;;4954277;29;20501;-77
2021/12/30 15:00:30;;;;;;;0.90;0.60;;;11.60;96.30;;;;;;4954405;29;21125;-78
2021/12/30 15:02:57;;;;;;;1.57;0.60;;;11.60;96.30;;;;;;4954760;29;20446;-78
2021/12/30 15:05:24;;;;;;;0.90;0.70;;;11.60;96.30;;;;;;4936446;29;20422;-77
2021/12/30 15:07:51;;;;;;;1.00;0.60;;;11.60;96.30;;;;;;4936386;29;20441;-78
2021/12/30 15:10:18;;;;;;;0.90;0.53;;;11.60;96.30;;;;;;4922116;29;20439;-76
2021/12/30 15:12:46;;;;;;;0.90;0.60;;;11.60;96.30;;;;;;4934532;29;20415;-77
2021/12/30 15:15:16;;;;;;;0.90;0.63;;;11.60;96.30;;;;;;4934618;29;20455;-77
2021/12/30 15:17:42;;;;;;;1.00;0.80;;;11.60;96.30;;;;;;4905290;29;20448;-77
2021/12/30 15:20:11;;;;;;;1.67;0.70;;;11.50;96.30;;;;;;4915412;29;20662;-77
2021/12/30 15:22:37;;;;;;;1.17;0.60;;;11.50;96.30;;;;;;4915660;29;20444;-77
2021/12/30 15:25:04;;;;;;;0.90;0.70;;;11.50;96.30;;;;;;4919103;29;20816;-78
2021/12/30 15:27:31;;;;;;;1.10;0.70;;;11.40;96.30;;;;;;4919015;29;20898;-77
2021/12/30 15:29:57;;;;;;;2.03;1.10;;;11.40;96.30;;;;;;4919221;29;20475;-77
2021/12/30 15:32:23;;;;;;;2.63;0.80;;;11.30;96.30;;;;;;4919250;29;20808;-78
2021/12/30 15:34:51;;;;;;;1.00;0.60;;;11.40;96.30;;;;;;4901976;29;21007;-77
2021/12/30 15:37:17;;;;;;;1.10;0.70;;;11.40;96.30;;;;;;4919096;29;20180;-76
2021/12/30 15:39:43;;;;;;;0.97;0.70;;;11.40;96.30;;;;;;4918774;29;20470;-78
2021/12/30 15:42:09;;;;;;;1.50;0.63;;;11.40;96.30;;;;;;4931972;29;20215;-77
2021/12/30 15:44:34;;;;;;;3.13;0.80;;;11.40;96.30;;;;;;4913140;29;20761;-76
2021/12/30 15:47:00;;;;;;;0.90;0.80;;;11.40;96.30;;;;;;4937523;29;20216;-76
2021/12/30 15:49:25;;;;;;;6.83;4.87;;;11.40;96.30;;;;;;4920787;29;20247;-76
2021/12/30 15:51:51;;;;;;;1.10;0.80;;;11.40;96.30;;;;;;4937750;29;20602;-77
2021/12/30 15:54:17;;;;;;;1.10;0.90;;;11.40;96.30;;;;;;4937744;29;21505;-77
2021/12/30 15:56:45;;;;;;;1.20;0.90;;;11.30;96.30;;;;;;4932263;29;20179;-76
2021/12/30 15:59:14;;;;;;;1.60;1.10;;;11.40;96.30;;;;;;4931171;29;20455;-77
2021/12/30 16:01:41;;;;;;;1.67;1.00;;;11.30;96.30;;;;;;4931262;29;20866;-78
2021/12/30 16:04:07;;;;;;;3.03;0.60;;;11.10;96.30;;;;;;4932723;29;20424;-76
2021/12/30 16:06:37;;;;;;;0.90;0.60;;;11.20;96.30;;;;;;4934540;29;20418;-76
2021/12/30 16:09:05;;;;;;;1.20;0.80;;;11.00;96.30;;;;;;4933819;29;20423;-77
2021/12/30 16:11:31;;;;;;;3.17;1.03;;;11.00;96.30;;;;;;4931835;29;20444;-77
2021/12/30 16:13:57;;;;;;;1.20;0.80;;;10.90;96.30;;;;;;4933866;29;20438;-77
2021/12/30 16:16:22;;;;;;;1.97;0.77;;;10.90;96.30;;;;;;4927213;29;20643;-78
2021/12/30 16:18:48;;;;;;;1.10;0.83;;;10.90;96.30;;;;;;4960932;29;20517;-79
2021/12/30 16:21:15;;;;;;;0.80;0.60;;;10.80;96.30;;;;;;4956160;29;20203;-78
2021/12/30 16:23:40;;;;;;;2.40;1.10;;;10.90;96.30;;;;;;4941809;29;20182;-78
2021/12/30 16:26:07;;;;;;;1.33;0.67;;;10.90;96.30;;;;;;4956187;29;20410;-78
2021/12/30 16:28:32;;;;;;;0.90;0.70;;;10.80;96.30;;;;;;4957245;29;20523;-78
2021/12/30 16:30:58;;;;;;;2.10;0.60;;;11.00;96.30;;;;;;4961119;29;20498;-78
2021/12/30 16:33:24;;;;;;;0.90;0.60;;;11.10;96.30;;;;;;4949384;29;20282;-78
2021/12/30 16:35:49;;;;;;;1.10;0.70;;;11.10;96.30;;;;;;4948390;28;20275;-76
2021/12/30 16:38:15;;;;;;;0.80;0.60;;;11.00;96.30;;;;;;4948155;29;20523;-77
2021/12/30 16:40:41;;;;;;;0.90;0.60;;;11.00;96.30;;;;;;4928412;29;20211;-76
2021/12/30 16:43:10;;;;;;;1.10;0.80;;;11.10;96.30;;;;;;4948992;29;20163;-75
2021/12/30 16:45:37;;;;;;;3.87;2.63;;;11.10;96.30;;;;;;4951071;29;20419;-77
2021/12/30 16:48:07;;;;;;;0.90;0.70;;;11.20;96.30;;;;;;4955939;29;20422;-76
2021/12/30 16:50:33;;;;;;;0.90;0.80;;;11.20;96.30;;;;;;4938958;29;20529;-76
2021/12/30 16:52:58;;;;;;;2.40;0.80;;;11.30;96.30;;;;;;4938656;29;20862;-76
2021/12/30 16:55:24;;;;;;;0.90;0.60;;;11.30;96.30;;;;;;4937508;29;20186;-76
2021/12/30 16:57:50;;;;;;;1.10;0.70;;;11.30;96.30;;;;;;4938832;29;20190;-78
2021/12/30 17:00:19;;;;;;;1.17;0.80;;;11.30;96.30;;;;;;4939517;29;20702;-76
2021/12/30 17:02:45;;;;;;;1.13;0.90;;;11.20;96.30;;;;;;4958173;29;20453;-78
2021/12/30 17:05:13;;;;;;;1.50;0.93;;;11.30;96.30;;;;;;4944787;29;20486;-78
2021/12/30 17:07:39;;;;;;;2.07;0.90;;;11.40;96.30;;;;;;4962403;29;20407;-78
2021/12/30 17:10:06;;;;;;;1.37;0.87;;;11.30;96.30;;;;;;4961915;29;20430;-78
2021/12/30 17:12:32;;;;;;;2.90;0.80;;;11.40;96.30;;;;;;4961996;29;20445;-78
2021/12/30 17:15:00;;;;;;;1.40;1.10;;;11.30;96.30;;;;;;4942799;29;20439;-79
2021/12/30 17:17:26;;;;;;;1.90;0.90;;;11.30;96.30;;;;;;4945641;29;20505;-79
2021/12/30 17:19:51;;;;;;;2.00;0.90;;;11.20;96.30;;;;;;4962988;29;20929;-79
2021/12/30 18:23:51;;;;;;;;;;;;;;;;;;;;;
2021/12/30 20:34:49;;;;;;;;;;;;;;;;;;;;;
2021/12/30 20:37:16;;;;;;;4.90;1.00;;;10.80;96.30;;;;;;4946728;29;20408;-78
2021/12/30 20:39:42;;;;;;;2.50;0.73;;;10.80;96.30;;;;;;4948511;29;20557;-78
2021/12/30 20:42:08;;;;;;;1.00;0.80;;;10.70;96.30;;;;;;4950381;29;20461;-78
2021/12/30 20:44:33;;;;;;;1.83;0.70;;;10.80;96.30;;;;;;4932173;29;20465;-77
2021/12/30 20:46:59;;;;;;;1.53;0.80;;;10.70;96.30;;;;;;4950726;29;20172;-77
2021/12/30 20:49:25;;;;;;;0.90;0.67;;;10.80;96.30;;;;;;4946372;29;20608;-76
2021/12/30 20:51:51;;;;;;;1.50;0.70;;;10.80;96.30;;;;;;4947158;29;20199;-78
2021/12/30 20:54:17;;;;;;;1.10;0.80;;;10.80;96.30;;;;;;4936873;29;20214;-79
2021/12/30 20:56:43;;;;;;;1.93;0.80;;;10.80;96.30;;;;;;4919670;29;20183;-77
2021/12/30 20:59:09;;;;;;;1.53;1.00;;;10.80;96.30;;;;;;4936620;29;20443;-77
2021/12/30 21:01:34;;;;;;;1.47;0.70;;;10.80;96.30;;;;;;4936771;29;20435;-76
2021/12/30 21:04:03;;;;;;;4.80;0.80;;;10.80;96.30;;;;;;4936665;29;20250;-76
2021/12/30 21:06:28;;;;;;;0.90;0.73;;;10.80;96.30;;;;;;4919294;29;20648;-76
2021/12/30 21:08:55;;;;;;;1.20;0.60;;;10.80;96.30;;;;;;4922751;29;20419;-76
2021/12/30 21:11:23;;;;;;;1.90;1.20;;;10.80;96.30;;;;;;4955512;29;20610;-78
2021/12/30 21:13:51;;;;;;;2.40;0.80;;;10.80;96.30;;;;;;4938462;29;20573;-77
2021/12/30 21:16:17;;;;;;;0.83;0.60;;;10.80;96.30;;;;;;4955488;29;20418;-75
2021/12/30 21:18:43;;;;;;;2.10;0.80;;;10.80;96.30;;;;;;4955506;29;20422;-76
2021/12/30 21:21:09;;;;;;;1.20;0.70;;;10.90;96.30;;;;;;4954833;28;20567;-76
2021/12/30 21:23:34;;;;;;;1.20;0.87;;;10.80;96.30;;;;;;4955442;29;20182;-76
2021/12/30 21:26:02;;;;;;;0.90;0.67;;;10.90;96.30;;;;;;4955202;29;20655;-77
2021/12/30 21:28:29;;;;;;;1.00;0.90;;;10.90;96.30;;;;;;4955184;29;20564;-77
2021/12/30 21:30:55;;;;;;;0.90;0.67;;;10.90;96.30;;;;;;4955303;29;20434;-76
2021/12/30 21:33:22;;;;;;;9.70;0.83;;;10.80;96.30;;;;;;4938184;29;20830;-76
2021/12/30 21:35:52;;;;;;;1.60;0.90;;;10.80;96.30;;;;;;4954893;29;20411;-76
2021/12/30 21:38:18;;;;;;;1.00;0.80;;;10.90;96.30;;;;;;4955165;29;20469;-76
2021/12/30 21:40:47;;;;;;;1.43;0.70;;;10.80;96.30;;;;;;4954883;29;20462;-76
2021/12/30 21:43:14;;;;;;;2.17;0.70;;;10.90;96.30;;;;;;4955157;29;20411;-76
2021/12/30 21:45:41;;;;;;;1.63;1.03;;;10.90;96.30;;;;;;4943814;29;20427;-76
2021/12/30 21:48:06;;;;;;;1.00;0.80;;;10.90;96.30;;;;;;4950947;29;20918;-77
2021/12/30 21:50:33;;;;;;;0.90;0.70;;;10.90;96.30;;;;;;4954614;29;20445;-76
2021/12/30 21:52:58;;;;;;;1.50;0.70;;;10.90;96.30;;;;;;4935879;29;20182;-79
2021/12/30 21:55:24;;;;;;;2.17;1.00;;;10.90;96.30;;;;;;4954763;29;20419;-76
2021/12/30 21:57:52;;;;;;;0.90;0.60;;;11.00;96.30;;;;;;4954704;29;20175;-76
2021/12/30 22:00:21;;;;;;;1.20;0.90;;;11.00;96.30;;;;;;4954542;29;20469;-76
2021/12/30 22:02:48;;;;;;;1.30;0.80;;;11.00;96.30;;;;;;4954803;29;20417;-78
2021/12/30 22:05:15;;;;;;;1.77;0.80;;;11.00;96.30;;;;;;4954785;29;20407;-76
2021/12/30 22:07:40;;;;;;;1.20;0.90;;;11.00;96.30;;;;;;4937304;29;20446;-76